« Back
NWS Peachtree City, Ga » Text Product » ATL Terminal Aerodrome Forecast


Printer-friendly Version
Current Version              Previous Versions:   1  2  3  4  5  6  7  8  9  

Terminal Aerodrome Forecast

697
FTUS42 KFFC 210900 AAB
TAFATL
TAF AMD
KATL 210934Z 2110/2212 09005KT P6SM SCT250
     FM211500 17006KT P6SM FEW050 SCT120
     FM211700 24006KT P6SM FEW050 SCT120
     FM220300 27006KT P6SM SCT050 BKN120=



USA.gov is the U.S. government's official web portal to all federal, state and local government web resources and services.